sensor_id;sensor_type;location;lat;lon;timestamp;temperature;humidity
21830;DHT22;11077;50.264;6.798;2023-04-25T00:00:27;5.10;99.90
21830;DHT22;11077;50.264;6.798;2023-04-25T00:02:54;5.10;99.90
21830;DHT22;11077;50.264;6.798;2023-04-25T00:05:22;5.10;99.90
21830;DHT22;11077;50.264;6.798;2023-04-25T00:07:50;5.10;99.90
21830;DHT22;11077;50.264;6.798;2023-04-25T00:10:18;5.10;99.90
21830;DHT22;11077;50.264;6.798;2023-04-25T00:12:47;5.10;99.90
21830;DHT22;11077;50.264;6.798;2023-04-25T00:15:15;5.10;99.90
21830;DHT22;11077;50.264;6.798;2023-04-25T00:17:42;5.10;99.90
21830;DHT22;11077;50.264;6.798;2023-04-25T00:20:10;5.10;99.90
21830;DHT22;11077;50.264;6.798;2023-04-25T00:22:37;5.10;99.90
21830;DHT22;11077;50.264;6.798;2023-04-25T00:25:05;5.10;99.90
21830;DHT22;11077;50.264;6.798;2023-04-25T00:27:33;5.00;99.90
21830;DHT22;11077;50.264;6.798;2023-04-25T00:30:02;5.00;99.90
21830;DHT22;11077;50.264;6.798;2023-04-25T00:32:29;5.00;99.90
21830;DHT22;11077;50.264;6.798;2023-04-25T00:34:56;5.00;99.90
21830;DHT22;11077;50.264;6.798;2023-04-25T00:37:24;4.90;99.90
21830;DHT22;11077;50.264;6.798;2023-04-25T00:39:52;5.00;99.90
21830;DHT22;11077;50.264;6.798;2023-04-25T00:42:21;5.00;99.90
21830;DHT22;11077;50.264;6.798;2023-04-25T00:44:50;5.00;99.90
21830;DHT22;11077;50.264;6.798;2023-04-25T00:47:19;5.00;99.90
21830;DHT22;11077;50.264;6.798;2023-04-25T00:49:47;5.00;99.90
21830;DHT22;11077;50.264;6.798;2023-04-25T00:52:14;5.00;99.90
21830;DHT22;11077;50.264;6.798;2023-04-25T00:54:41;5.00;99.90
21830;DHT22;11077;50.264;6.798;2023-04-25T00:57:09;5.00;99.90
21830;DHT22;11077;50.264;6.798;2023-04-25T00:59:37;5.00;99.90
21830;DHT22;11077;50.264;6.798;2023-04-25T01:02:05;5.00;99.90
21830;DHT22;11077;50.264;6.798;2023-04-25T01:04:34;5.00;99.90
21830;DHT22;11077;50.264;6.798;2023-04-25T01:07:01;5.00;99.90
21830;DHT22;11077;50.264;6.798;2023-04-25T01:09:30;5.10;99.90
21830;DHT22;11077;50.264;6.798;2023-04-25T01:11:57;5.00;99.90
21830;DHT22;11077;50.264;6.798;2023-04-25T01:14:25;5.10;99.90
21830;DHT22;11077;50.264;6.798;2023-04-25T01:16:53;5.10;99.90
21830;DHT22;11077;50.264;6.798;2023-04-25T01:19:20;5.10;99.90
21830;DHT22;11077;50.264;6.798;2023-04-25T01:21:49;5.10;99.90
21830;DHT22;11077;50.264;6.798;2023-04-25T01:24:17;5.10;99.90
21830;DHT22;11077;50.264;6.798;2023-04-25T01:26:44;5.10;99.90
21830;DHT22;11077;50.264;6.798;2023-04-25T01:29:18;5.10;99.90
21830;DHT22;11077;50.264;6.798;2023-04-25T01:31:46;5.10;99.90
21830;DHT22;11077;50.264;6.798;2023-04-25T01:34:13;5.20;99.90
21830;DHT22;11077;50.264;6.798;2023-04-25T01:36:40;5.10;99.90
21830;DHT22;11077;50.264;6.798;2023-04-25T01:39:09;5.20;99.90
21830;DHT22;11077;50.264;6.798;2023-04-25T01:41:38;5.20;99.90
21830;DHT22;11077;50.264;6.798;2023-04-25T01:44:05;5.20;99.90
21830;DHT22;11077;50.264;6.798;2023-04-25T01:46:33;5.20;99.90
21830;DHT22;11077;50.264;6.798;2023-04-25T01:49:00;5.10;99.90
21830;DHT22;11077;50.264;6.798;2023-04-25T01:51:29;5.20;99.90
21830;DHT22;11077;50.264;6.798;2023-04-25T01:53:58;5.20;99.90
21830;DHT22;11077;50.264;6.798;2023-04-25T01:56:30;5.10;99.90
21830;DHT22;11077;50.264;6.798;2023-04-25T01:58:57;5.20;99.90
21830;DHT22;11077;50.264;6.798;2023-04-25T02:01:43;5.20;99.90
21830;DHT22;11077;50.264;6.798;2023-04-25T02:04:21;5.20;99.90
21830;DHT22;11077;50.264;6.798;2023-04-25T02:06:48;5.20;99.90
21830;DHT22;11077;50.264;6.798;2023-04-25T02:09:16;5.20;99.90
21830;DHT22;11077;50.264;6.798;2023-04-25T02:11:49;5.20;99.90
21830;DHT22;11077;50.264;6.798;2023-04-25T02:14:51;5.20;99.90
21830;DHT22;11077;50.264;6.798;2023-04-25T02:17:27;5.20;99.90
21830;DHT22;11077;50.264;6.798;2023-04-25T02:19:54;5.20;99.90
21830;DHT22;11077;50.264;6.798;2023-04-25T02:22:23;5.20;99.90
21830;DHT22;11077;50.264;6.798;2023-04-25T02:24:50;5.20;99.90
21830;DHT22;11077;50.264;6.798;2023-04-25T02:27:19;5.20;99.90
21830;DHT22;11077;50.264;6.798;2023-04-25T02:29:46;5.20;99.90
21830;DHT22;11077;50.264;6.798;2023-04-25T02:32:13;5.20;99.90
21830;DHT22;11077;50.264;6.798;2023-04-25T02:34:40;5.20;99.90
21830;DHT22;11077;50.264;6.798;2023-04-25T02:37:07;5.20;99.90
21830;DHT22;11077;50.264;6.798;2023-04-25T02:39:34;5.20;99.90
21830;DHT22;11077;50.264;6.798;2023-04-25T02:42:02;5.20;99.90
21830;DHT22;11077;50.264;6.798;2023-04-25T02:44:30;5.10;99.90
21830;DHT22;11077;50.264;6.798;2023-04-25T02:46:58;5.10;99.90
21830;DHT22;11077;50.264;6.798;2023-04-25T02:49:25;5.00;99.90
21830;DHT22;11077;50.264;6.798;2023-04-25T02:51:52;5.00;99.90
21830;DHT22;11077;50.264;6.798;2023-04-25T02:54:19;5.00;99.90
21830;DHT22;11077;50.264;6.798;2023-04-25T02:56:48;5.00;99.90
21830;DHT22;11077;50.264;6.798;2023-04-25T02:59:22;5.00;99.90
21830;DHT22;11077;50.264;6.798;2023-04-25T03:01:50;5.00;99.90
21830;DHT22;11077;50.264;6.798;2023-04-25T03:04:17;5.00;99.90
21830;DHT22;11077;50.264;6.798;2023-04-25T03:06:47;5.00;99.90
21830;DHT22;11077;50.264;6.798;2023-04-25T03:09:14;4.90;99.90
21830;DHT22;11077;50.264;6.798;2023-04-25T03:11:41;4.90;99.90
21830;DHT22;11077;50.264;6.798;2023-04-25T03:14:09;4.90;99.90
21830;DHT22;11077;50.264;6.798;2023-04-25T03:16:36;4.90;99.90
21830;DHT22;11077;50.264;6.798;2023-04-25T03:19:05;4.90;99.90
21830;DHT22;11077;50.264;6.798;2023-04-25T03:21:33;4.90;99.90
21830;DHT22;11077;50.264;6.798;2023-04-25T03:24:02;4.90;99.90
21830;DHT22;11077;50.264;6.798;2023-04-25T03:26:30;4.90;99.90
21830;DHT22;11077;50.264;6.798;2023-04-25T03:28:57;4.90;99.90
21830;DHT22;11077;50.264;6.798;2023-04-25T03:31:24;4.90;99.90
21830;DHT22;11077;50.264;6.798;2023-04-25T03:33:52;4.90;99.90
21830;DHT22;11077;50.264;6.798;2023-04-25T03:36:22;4.90;99.90
21830;DHT22;11077;50.264;6.798;2023-04-25T03:38:49;4.90;99.90
21830;DHT22;11077;50.264;6.798;2023-04-25T03:41:17;4.90;99.90
21830;DHT22;11077;50.264;6.798;2023-04-25T03:43:48;4.90;99.90
21830;DHT22;11077;50.264;6.798;2023-04-25T03:46:16;4.90;99.90
21830;DHT22;11077;50.264;6.798;2023-04-25T03:48:45;4.90;99.90
21830;DHT22;11077;50.264;6.798;2023-04-25T03:51:18;4.90;99.90
21830;DHT22;11077;50.264;6.798;2023-04-25T03:53:47;4.90;99.90
21830;DHT22;11077;50.264;6.798;2023-04-25T03:56:15;4.80;99.90
21830;DHT22;11077;50.264;6.798;2023-04-25T03:58:44;4.90;99.90
21830;DHT22;11077;50.264;6.798;2023-04-25T04:01:13;4.90;99.90
21830;DHT22;11077;50.264;6.798;2023-04-25T04:03:41;4.80;99.90
21830;DHT22;11077;50.264;6.798;2023-04-25T04:06:09;4.80;99.90
21830;DHT22;11077;50.264;6.798;2023-04-25T04:08:42;4.80;99.90
21830;DHT22;11077;50.264;6.798;2023-04-25T04:11:12;4.80;99.90
21830;DHT22;11077;50.264;6.798;2023-04-25T04:13:39;4.80;99.90
21830;DHT22;11077;50.264;6.798;2023-04-25T04:16:07;4.70;99.90
21830;DHT22;11077;50.264;6.798;2023-04-25T04:18:35;4.70;99.90
21830;DHT22;11077;50.264;6.798;2023-04-25T04:21:02;4.60;99.90
21830;DHT22;11077;50.264;6.798;2023-04-25T04:23:33;4.60;99.90
21830;DHT22;11077;50.264;6.798;2023-04-25T04:26:01;4.50;99.90
21830;DHT22;11077;50.264;6.798;2023-04-25T04:28:40;4.50;99.90
21830;DHT22;11077;50.264;6.798;2023-04-25T04:31:16;4.50;99.90
21830;DHT22;11077;50.264;6.798;2023-04-25T04:33:46;4.40;99.90
21830;DHT22;11077;50.264;6.798;2023-04-25T04:36:14;4.50;99.90
21830;DHT22;11077;50.264;6.798;2023-04-25T04:38:46;4.40;99.90
21830;DHT22;11077;50.264;6.798;2023-04-25T04:41:22;4.40;99.90
21830;DHT22;11077;50.264;6.798;2023-04-25T04:43:57;4.30;99.90
21830;DHT22;11077;50.264;6.798;2023-04-25T04:46:36;4.30;99.90
21830;DHT22;11077;50.264;6.798;2023-04-25T04:49:13;4.30;99.90
21830;DHT22;11077;50.264;6.798;2023-04-25T04:51:54;4.30;99.90
21830;DHT22;11077;50.264;6.798;2023-04-25T04:54:54;4.30;99.90
21830;DHT22;11077;50.264;6.798;2023-04-25T04:57:41;4.20;99.90
21830;DHT22;11077;50.264;6.798;2023-04-25T05:00:45;4.20;99.90
21830;DHT22;11077;50.264;6.798;2023-04-25T05:03:35;4.20;99.90
21830;DHT22;11077;50.264;6.798;2023-04-25T05:06:11;4.20;99.90
21830;DHT22;11077;50.264;6.798;2023-04-25T05:08:57;4.10;99.90
21830;DHT22;11077;50.264;6.798;2023-04-25T05:11:36;4.10;99.90
21830;DHT22;11077;50.264;6.798;2023-04-25T05:14:13;4.00;99.90
21830;DHT22;11077;50.264;6.798;2023-04-25T05:16:49;4.00;99.90
21830;DHT22;11077;50.264;6.798;2023-04-25T05:19:36;4.10;99.90
21830;DHT22;11077;50.264;6.798;2023-04-25T05:22:18;4.10;99.90
21830;DHT22;11077;50.264;6.798;2023-04-25T05:25:10;4.10;99.90
21830;DHT22;11077;50.264;6.798;2023-04-25T05:27:57;4.10;99.90
21830;DHT22;11077;50.264;6.798;2023-04-25T05:30:48;4.00;99.90
21830;DHT22;11077;50.264;6.798;2023-04-25T05:33:20;4.10;99.90
21830;DHT22;11077;50.264;6.798;2023-04-25T05:35:48;4.00;99.90
21830;DHT22;11077;50.264;6.798;2023-04-25T05:38:16;4.00;99.90
21830;DHT22;11077;50.264;6.798;2023-04-25T05:41:02;4.00;99.90
21830;DHT22;11077;50.264;6.798;2023-04-25T05:43:39;4.00;99.90
21830;DHT22;11077;50.264;6.798;2023-04-25T05:46:24;4.00;99.90
21830;DHT22;11077;50.264;6.798;2023-04-25T05:49:06;4.00;99.90
21830;DHT22;11077;50.264;6.798;2023-04-25T05:51:56;3.90;99.90
21830;DHT22;11077;50.264;6.798;2023-04-25T05:54:49;3.90;99.90
21830;DHT22;11077;50.264;6.798;2023-04-25T05:57:22;3.80;99.90
21830;DHT22;11077;50.264;6.798;2023-04-25T05:59:49;3.70;99.90
21830;DHT22;11077;50.264;6.798;2023-04-25T06:02:17;3.70;99.90
21830;DHT22;11077;50.264;6.798;2023-04-25T06:04:46;3.70;99.90
21830;DHT22;11077;50.264;6.798;2023-04-25T06:07:13;3.70;99.90
21830;DHT22;11077;50.264;6.798;2023-04-25T06:09:40;3.70;99.90
21830;DHT22;11077;50.264;6.798;2023-04-25T06:12:08;3.70;99.90
21830;DHT22;11077;50.264;6.798;2023-04-25T06:14:36;3.70;99.90
21830;DHT22;11077;50.264;6.798;2023-04-25T06:17:03;3.70;99.90
21830;DHT22;11077;50.264;6.798;2023-04-25T06:19:34;3.80;99.90
21830;DHT22;11077;50.264;6.798;2023-04-25T06:22:03;3.80;99.90
21830;DHT22;11077;50.264;6.798;2023-04-25T06:24:34;3.80;99.90
21830;DHT22;11077;50.264;6.798;2023-04-25T06:27:03;3.80;99.90
21830;DHT22;11077;50.264;6.798;2023-04-25T06:29:31;3.80;99.90
21830;DHT22;11077;50.264;6.798;2023-04-25T06:31:58;3.80;99.90
21830;DHT22;11077;50.264;6.798;2023-04-25T06:34:25;3.80;99.90
21830;DHT22;11077;50.264;6.798;2023-04-25T06:36:52;3.90;99.90
21830;DHT22;11077;50.264;6.798;2023-04-25T06:39:22;3.80;99.90
21830;DHT22;11077;50.264;6.798;2023-04-25T06:41:51;3.90;99.90
21830;DHT22;11077;50.264;6.798;2023-04-25T06:44:54;3.90;99.90
21830;DHT22;11077;50.264;6.798;2023-04-25T06:47:21;3.90;99.90
21830;DHT22;11077;50.264;6.798;2023-04-25T06:49:50;3.90;99.90
21830;DHT22;11077;50.264;6.798;2023-04-25T06:52:17;4.00;99.90
21830;DHT22;11077;50.264;6.798;2023-04-25T06:54:47;4.00;99.90
21830;DHT22;11077;50.264;6.798;2023-04-25T06:57:33;4.00;99.90
21830;DHT22;11077;50.264;6.798;2023-04-25T07:00:23;4.00;99.90
21830;DHT22;11077;50.264;6.798;2023-04-25T07:06:49;4.10;99.90
21830;DHT22;11077;50.264;6.798;2023-04-25T07:09:42;4.10;99.90
21830;DHT22;11077;50.264;6.798;2023-04-25T07:12:12;4.20;99.90
21830;DHT22;11077;50.264;6.798;2023-04-25T07:14:39;4.30;99.90
21830;DHT22;11077;50.264;6.798;2023-04-25T07:17:08;4.40;99.90
21830;DHT22;11077;50.264;6.798;2023-04-25T07:19:36;4.40;99.90
21830;DHT22;11077;50.264;6.798;2023-04-25T07:22:06;4.50;99.90
21830;DHT22;11077;50.264;6.798;2023-04-25T07:24:36;4.50;99.90
21830;DHT22;11077;50.264;6.798;2023-04-25T07:27:05;4.70;99.90
21830;DHT22;11077;50.264;6.798;2023-04-25T07:29:53;4.70;99.90
21830;DHT22;11077;50.264;6.798;2023-04-25T07:32:23;4.70;99.90
21830;DHT22;11077;50.264;6.798;2023-04-25T07:34:50;4.80;99.90
21830;DHT22;11077;50.264;6.798;2023-04-25T07:37:17;4.80;99.90
21830;DHT22;11077;50.264;6.798;2023-04-25T07:39:59;4.80;99.90
21830;DHT22;11077;50.264;6.798;2023-04-25T07:42:26;4.70;99.90
21830;DHT22;11077;50.264;6.798;2023-04-25T07:44:55;4.80;99.90
21830;DHT22;11077;50.264;6.798;2023-04-25T07:47:22;4.80;99.90
21830;DHT22;11077;50.264;6.798;2023-04-25T07:49:50;4.70;99.90
21830;DHT22;11077;50.264;6.798;2023-04-25T07:52:18;4.70;99.90
21830;DHT22;11077;50.264;6.798;2023-04-25T07:54:50;4.70;99.90
21830;DHT22;11077;50.264;6.798;2023-04-25T07:57:24;4.60;99.90
21830;DHT22;11077;50.264;6.798;2023-04-25T07:59:52;4.60;99.90
21830;DHT22;11077;50.264;6.798;2023-04-25T08:02:22;4.70;99.90
21830;DHT22;11077;50.264;6.798;2023-04-25T08:04:51;4.70;99.90
21830;DHT22;11077;50.264;6.798;2023-04-25T08:07:20;4.80;99.90
21830;DHT22;11077;50.264;6.798;2023-04-25T08:09:51;4.80;99.90
21830;DHT22;11077;50.264;6.798;2023-04-25T08:12:24;4.90;99.90
21830;DHT22;11077;50.264;6.798;2023-04-25T08:14:52;4.90;99.90
21830;DHT22;11077;50.264;6.798;2023-04-25T08:17:19;4.90;99.90
21830;DHT22;11077;50.264;6.798;2023-04-25T08:19:48;4.90;99.90
21830;DHT22;11077;50.264;6.798;2023-04-25T08:22:23;5.00;99.90
21830;DHT22;11077;50.264;6.798;2023-04-25T08:24:57;4.90;99.90
21830;DHT22;11077;50.264;6.798;2023-04-25T08:27:24;4.90;99.90
21830;DHT22;11077;50.264;6.798;2023-04-25T08:29:52;5.00;99.90
21830;DHT22;11077;50.264;6.798;2023-04-25T08:32:20;5.20;99.90
21830;DHT22;11077;50.264;6.798;2023-04-25T08:35:28;5.30;99.90
21830;DHT22;11077;50.264;6.798;2023-04-25T08:37:55;5.40;99.90
21830;DHT22;11077;50.264;6.798;2023-04-25T08:40:27;5.30;99.90
21830;DHT22;11077;50.264;6.798;2023-04-25T08:43:06;5.30;99.90
21830;DHT22;11077;50.264;6.798;2023-04-25T08:45:40;5.30;99.90
21830;DHT22;11077;50.264;6.798;2023-04-25T08:48:11;5.30;99.90
21830;DHT22;11077;50.264;6.798;2023-04-25T08:50:45;5.30;99.90
21830;DHT22;11077;50.264;6.798;2023-04-25T08:53:14;5.30;99.90
21830;DHT22;11077;50.264;6.798;2023-04-25T08:55:46;5.30;99.90
21830;DHT22;11077;50.264;6.798;2023-04-25T08:58:15;5.30;99.90
21830;DHT22;11077;50.264;6.798;2023-04-25T09:00:43;5.30;99.90
21830;DHT22;11077;50.264;6.798;2023-04-25T09:03:11;5.20;99.90
21830;DHT22;11077;50.264;6.798;2023-04-25T09:05:41;5.20;99.90
21830;DHT22;11077;50.264;6.798;2023-04-25T09:08:09;5.20;99.90
21830;DHT22;11077;50.264;6.798;2023-04-25T09:10:37;5.20;99.90
21830;DHT22;11077;50.264;6.798;2023-04-25T09:13:06;5.20;99.90
21830;DHT22;11077;50.264;6.798;2023-04-25T09:15:54;5.20;99.90
21830;DHT22;11077;50.264;6.798;2023-04-25T09:18:40;5.10;99.90
21830;DHT22;11077;50.264;6.798;2023-04-25T09:21:10;5.10;99.90
21830;DHT22;11077;50.264;6.798;2023-04-25T09:23:43;5.10;99.90
21830;DHT22;11077;50.264;6.798;2023-04-25T09:26:14;5.20;99.90
21830;DHT22;11077;50.264;6.798;2023-04-25T09:28:41;5.10;99.90
21830;DHT22;11077;50.264;6.798;2023-04-25T09:31:10;5.00;99.90
21830;DHT22;11077;50.264;6.798;2023-04-25T09:33:44;5.10;99.90
21830;DHT22;11077;50.264;6.798;2023-04-25T09:36:12;5.10;99.90
21830;DHT22;11077;50.264;6.798;2023-04-25T09:39:00;5.20;99.90
21830;DHT22;11077;50.264;6.798;2023-04-25T09:41:32;5.30;99.90
21830;DHT22;11077;50.264;6.798;2023-04-25T09:44:04;5.30;99.90
21830;DHT22;11077;50.264;6.798;2023-04-25T09:46:35;5.40;99.90
21830;DHT22;11077;50.264;6.798;2023-04-25T09:49:06;5.50;99.90
21830;DHT22;11077;50.264;6.798;2023-04-25T09:51:58;5.60;99.90
21830;DHT22;11077;50.264;6.798;2023-04-25T09:54:46;5.90;99.90
21830;DHT22;11077;50.264;6.798;2023-04-25T09:57:20;6.00;99.90
21830;DHT22;11077;50.264;6.798;2023-04-25T09:59:49;6.10;99.90
21830;DHT22;11077;50.264;6.798;2023-04-25T10:02:18;6.20;99.90
21830;DHT22;11077;50.264;6.798;2023-04-25T10:04:49;6.30;99.90
21830;DHT22;11077;50.264;6.798;2023-04-25T10:07:25;6.40;99.90
21830;DHT22;11077;50.264;6.798;2023-04-25T10:09:58;6.50;99.90
21830;DHT22;11077;50.264;6.798;2023-04-25T10:12:26;6.40;99.90
21830;DHT22;11077;50.264;6.798;2023-04-25T10:14:54;6.30;99.90
21830;DHT22;11077;50.264;6.798;2023-04-25T10:17:22;6.20;99.90
21830;DHT22;11077;50.264;6.798;2023-04-25T10:19:49;6.20;99.90
21830;DHT22;11077;50.264;6.798;2023-04-25T10:22:23;6.30;99.90
21830;DHT22;11077;50.264;6.798;2023-04-25T10:24:55;6.40;99.90
21830;DHT22;11077;50.264;6.798;2023-04-25T10:27:22;6.50;99.90
21830;DHT22;11077;50.264;6.798;2023-04-25T10:30:01;6.70;99.90
21830;DHT22;11077;50.264;6.798;2023-04-25T10:32:31;6.70;99.90
21830;DHT22;11077;50.264;6.798;2023-04-25T10:35:10;6.60;99.90
21830;DHT22;11077;50.264;6.798;2023-04-25T10:37:46;6.70;99.90
21830;DHT22;11077;50.264;6.798;2023-04-25T10:40:24;6.70;99.90
21830;DHT22;11077;50.264;6.798;2023-04-25T10:42:52;6.80;99.90
21830;DHT22;11077;50.264;6.798;2023-04-25T10:45:20;6.90;99.90
21830;DHT22;11077;50.264;6.798;2023-04-25T10:47:47;6.90;99.90
21830;DHT22;11077;50.264;6.798;2023-04-25T10:50:16;6.90;99.90
21830;DHT22;11077;50.264;6.798;2023-04-25T10:52:43;7.00;99.90
21830;DHT22;11077;50.264;6.798;2023-04-25T10:55:11;7.00;99.90
21830;DHT22;11077;50.264;6.798;2023-04-25T10:57:41;7.10;99.90
21830;DHT22;11077;50.264;6.798;2023-04-25T11:00:12;6.90;99.90
21830;DHT22;11077;50.264;6.798;2023-04-25T11:02:42;6.90;99.90
21830;DHT22;11077;50.264;6.798;2023-04-25T11:05:12;6.90;99.90
21830;DHT22;11077;50.264;6.798;2023-04-25T11:07:49;7.00;99.90
21830;DHT22;11077;50.264;6.798;2023-04-25T11:10:16;7.20;99.90
21830;DHT22;11077;50.264;6.798;2023-04-25T11:12:46;7.30;99.90
21830;DHT22;11077;50.264;6.798;2023-04-25T11:15:13;7.50;99.90
21830;DHT22;11077;50.264;6.798;2023-04-25T11:17:41;7.70;99.90
21830;DHT22;11077;50.264;6.798;2023-04-25T11:20:10;7.80;99.90
21830;DHT22;11077;50.264;6.798;2023-04-25T11:22:40;7.80;99.90
21830;DHT22;11077;50.264;6.798;2023-04-25T11:25:09;7.80;99.90
21830;DHT22;11077;50.264;6.798;2023-04-25T11:27:38;7.80;99.90
21830;DHT22;11077;50.264;6.798;2023-04-25T11:30:15;7.80;99.90
21830;DHT22;11077;50.264;6.798;2023-04-25T11:32:43;7.70;99.90
21830;DHT22;11077;50.264;6.798;2023-04-25T11:35:10;7.70;99.90
21830;DHT22;11077;50.264;6.798;2023-04-25T11:37:39;7.70;99.90
21830;DHT22;11077;50.264;6.798;2023-04-25T11:40:07;7.70;99.90
21830;DHT22;11077;50.264;6.798;2023-04-25T11:42:37;7.70;99.90
21830;DHT22;11077;50.264;6.798;2023-04-25T11:45:06;7.70;99.90
21830;DHT22;11077;50.264;6.798;2023-04-25T11:47:35;7.80;99.90
21830;DHT22;11077;50.264;6.798;2023-04-25T11:50:03;7.90;99.90
21830;DHT22;11077;50.264;6.798;2023-04-25T11:52:38;7.90;99.90
21830;DHT22;11077;50.264;6.798;2023-04-25T11:55:08;7.90;99.90
21830;DHT22;11077;50.264;6.798;2023-04-25T11:57:36;8.00;99.90
21830;DHT22;11077;50.264;6.798;2023-04-25T12:00:10;8.00;99.90
21830;DHT22;11077;50.264;6.798;2023-04-25T12:02:41;8.00;99.90
21830;DHT22;11077;50.264;6.798;2023-04-25T12:05:10;7.70;99.90
21830;DHT22;11077;50.264;6.798;2023-04-25T12:07:37;7.80;99.90
21830;DHT22;11077;50.264;6.798;2023-04-25T12:10:06;7.90;99.90
21830;DHT22;11077;50.264;6.798;2023-04-25T12:12:34;7.90;99.90
21830;DHT22;11077;50.264;6.798;2023-04-25T12:15:12;7.80;99.90
21830;DHT22;11077;50.264;6.798;2023-04-25T12:17:44;7.60;99.90
21830;DHT22;11077;50.264;6.798;2023-04-25T12:20:14;7.60;99.90
21830;DHT22;11077;50.264;6.798;2023-04-25T12:22:42;7.50;99.90
21830;DHT22;11077;50.264;6.798;2023-04-25T12:25:11;7.40;99.90
21830;DHT22;11077;50.264;6.798;2023-04-25T12:27:39;7.20;99.90
21830;DHT22;11077;50.264;6.798;2023-04-25T12:30:08;6.90;99.90
21830;DHT22;11077;50.264;6.798;2023-04-25T12:32:37;6.80;99.90
21830;DHT22;11077;50.264;6.798;2023-04-25T12:35:06;6.70;99.90
21830;DHT22;11077;50.264;6.798;2023-04-25T12:37:34;6.60;99.90
21830;DHT22;11077;50.264;6.798;2023-04-25T12:40:01;6.60;99.90
21830;DHT22;11077;50.264;6.798;2023-04-25T12:42:29;6.60;99.90
21830;DHT22;11077;50.264;6.798;2023-04-25T12:44:57;6.60;99.90
21830;DHT22;11077;50.264;6.798;2023-04-25T12:47:24;6.70;99.90
21830;DHT22;11077;50.264;6.798;2023-04-25T12:49:51;6.80;99.90
21830;DHT22;11077;50.264;6.798;2023-04-25T12:52:20;7.00;99.90
21830;DHT22;11077;50.264;6.798;2023-04-25T12:54:47;7.30;99.90
21830;DHT22;11077;50.264;6.798;2023-04-25T12:57:14;7.50;99.90
21830;DHT22;11077;50.264;6.798;2023-04-25T12:59:41;7.70;99.90
21830;DHT22;11077;50.264;6.798;2023-04-25T13:02:08;7.90;99.90
21830;DHT22;11077;50.264;6.798;2023-04-25T13:04:36;8.00;99.90
21830;DHT22;11077;50.264;6.798;2023-04-25T13:07:04;8.00;99.90
21830;DHT22;11077;50.264;6.798;2023-04-25T13:09:32;8.00;99.90
21830;DHT22;11077;50.264;6.798;2023-04-25T13:11:59;7.80;99.90
21830;DHT22;11077;50.264;6.798;2023-04-25T13:14:27;7.70;99.90
21830;DHT22;11077;50.264;6.798;2023-04-25T13:16:54;7.70;99.90
21830;DHT22;11077;50.264;6.798;2023-04-25T13:19:22;7.70;99.90
21830;DHT22;11077;50.264;6.798;2023-04-25T13:21:49;7.70;99.90
21830;DHT22;11077;50.264;6.798;2023-04-25T13:24:16;7.60;99.90
21830;DHT22;11077;50.264;6.798;2023-04-25T13:26:45;7.60;99.90
21830;DHT22;11077;50.264;6.798;2023-04-25T13:29:12;7.50;99.90
21830;DHT22;11077;50.264;6.798;2023-04-25T13:31:39;7.40;99.90
21830;DHT22;11077;50.264;6.798;2023-04-25T13:34:06;7.30;99.90
21830;DHT22;11077;50.264;6.798;2023-04-25T13:36:34;7.20;99.90
21830;DHT22;11077;50.264;6.798;2023-04-25T13:39:01;7.10;99.90
21830;DHT22;11077;50.264;6.798;2023-04-25T13:41:29;7.00;99.90
21830;DHT22;11077;50.264;6.798;2023-04-25T13:43:58;6.90;99.90
21830;DHT22;11077;50.264;6.798;2023-04-25T13:46:26;6.90;99.90
21830;DHT22;11077;50.264;6.798;2023-04-25T13:48:54;6.80;99.90
21830;DHT22;11077;50.264;6.798;2023-04-25T13:51:21;6.80;99.90
21830;DHT22;11077;50.264;6.798;2023-04-25T13:53:48;6.60;99.90
21830;DHT22;11077;50.264;6.798;2023-04-25T13:56:15;6.60;99.90
21830;DHT22;11077;50.264;6.798;2023-04-25T13:58:42;6.50;99.90
21830;DHT22;11077;50.264;6.798;2023-04-25T14:01:11;6.50;99.90
21830;DHT22;11077;50.264;6.798;2023-04-25T14:03:38;6.40;99.90
21830;DHT22;11077;50.264;6.798;2023-04-25T14:06:07;6.30;99.90
21830;DHT22;11077;50.264;6.798;2023-04-25T14:08:34;6.30;99.90
21830;DHT22;11077;50.264;6.798;2023-04-25T14:11:02;6.20;99.90
21830;DHT22;11077;50.264;6.798;2023-04-25T14:13:29;6.10;99.90
21830;DHT22;11077;50.264;6.798;2023-04-25T14:15:56;6.10;99.90
21830;DHT22;11077;50.264;6.798;2023-04-25T14:18:25;6.00;99.90
21830;DHT22;11077;50.264;6.798;2023-04-25T14:20:52;6.00;99.90
21830;DHT22;11077;50.264;6.798;2023-04-25T14:23:19;6.00;99.90
21830;DHT22;11077;50.264;6.798;2023-04-25T14:25:46;6.00;99.90
21830;DHT22;11077;50.264;6.798;2023-04-25T14:28:14;5.90;99.90
21830;DHT22;11077;50.264;6.798;2023-04-25T14:30:41;5.90;99.90
21830;DHT22;11077;50.264;6.798;2023-04-25T14:33:08;5.90;99.90
21830;DHT22;11077;50.264;6.798;2023-04-25T14:35:37;6.00;99.90
21830;DHT22;11077;50.264;6.798;2023-04-25T14:38:04;6.00;99.90
21830;DHT22;11077;50.264;6.798;2023-04-25T14:40:32;6.00;99.90
21830;DHT22;11077;50.264;6.798;2023-04-25T14:42:59;6.10;99.90
21830;DHT22;11077;50.264;6.798;2023-04-25T14:45:26;6.10;99.90
21830;DHT22;11077;50.264;6.798;2023-04-25T14:47:53;6.20;99.90
21830;DHT22;11077;50.264;6.798;2023-04-25T14:50:20;6.20;99.90
21830;DHT22;11077;50.264;6.798;2023-04-25T14:52:49;6.20;99.90
21830;DHT22;11077;50.264;6.798;2023-04-25T14:55:18;6.30;99.90
21830;DHT22;11077;50.264;6.798;2023-04-25T14:57:45;6.30;99.90
21830;DHT22;11077;50.264;6.798;2023-04-25T15:00:13;6.30;99.90
21830;DHT22;11077;50.264;6.798;2023-04-25T15:02:42;6.30;99.90
21830;DHT22;11077;50.264;6.798;2023-04-25T15:05:09;6.40;99.90
21830;DHT22;11077;50.264;6.798;2023-04-25T15:07:37;6.40;99.90
21830;DHT22;11077;50.264;6.798;2023-04-25T15:10:07;6.50;99.90
21830;DHT22;11077;50.264;6.798;2023-04-25T15:12:39;6.60;99.90
21830;DHT22;11077;50.264;6.798;2023-04-25T15:15:07;6.70;99.90
21830;DHT22;11077;50.264;6.798;2023-04-25T15:17:37;6.90;99.90
21830;DHT22;11077;50.264;6.798;2023-04-25T15:20:05;7.00;99.90
21830;DHT22;11077;50.264;6.798;2023-04-25T15:22:33;7.30;99.90
21830;DHT22;11077;50.264;6.798;2023-04-25T15:25:00;7.50;99.90
21830;DHT22;11077;50.264;6.798;2023-04-25T15:27:29;7.70;99.90
21830;DHT22;11077;50.264;6.798;2023-04-25T15:29:57;7.70;99.90
21830;DHT22;11077;50.264;6.798;2023-04-25T15:32:24;7.70;99.90
21830;DHT22;11077;50.264;6.798;2023-04-25T15:34:52;7.80;99.90
21830;DHT22;11077;50.264;6.798;2023-04-25T15:37:19;7.80;99.90
21830;DHT22;11077;50.264;6.798;2023-04-25T15:39:46;7.70;99.90
21830;DHT22;11077;50.264;6.798;2023-04-25T15:42:13;7.70;99.90
21830;DHT22;11077;50.264;6.798;2023-04-25T15:44:42;7.60;99.90
21830;DHT22;11077;50.264;6.798;2023-04-25T15:47:09;7.70;99.90
21830;DHT22;11077;50.264;6.798;2023-04-25T15:49:36;7.70;99.90
21830;DHT22;11077;50.264;6.798;2023-04-25T15:52:03;7.70;99.90
21830;DHT22;11077;50.264;6.798;2023-04-25T15:54:31;7.70;99.90
21830;DHT22;11077;50.264;6.798;2023-04-25T15:56:58;7.70;99.90
21830;DHT22;11077;50.264;6.798;2023-04-25T15:59:26;7.60;99.90
21830;DHT22;11077;50.264;6.798;2023-04-25T16:01:55;7.60;99.90
21830;DHT22;11077;50.264;6.798;2023-04-25T16:04:22;7.50;99.90
21830;DHT22;11077;50.264;6.798;2023-04-25T16:06:50;7.50;99.90
21830;DHT22;11077;50.264;6.798;2023-04-25T16:09:18;7.40;99.90